Motte Rimrock Reserve, California Weather observations

Data are for 10 minute period ending at time listed.
 Day   Time   Solar   Ave.   Ave.  Ave.  Vector  Max.   Baro.   Total    
  of    of     Rad.   Air    Rel.  Wind   Wind   Wind  Press.  Precip.   
Year   Day            Temp.  Hum.  Speed  Dir.   Gust                    
2016   (PST)  Kw/m2    F      %     mph   deg.    mph    mb.     in.     
-------------------------------------------------------------------------
 122   20:40   0.00   58.4    70    5.1   346     6.5   947.6    0.00 
 122   20:50   0.00   58.4    70    4.7   336     6.2   947.7    0.00 
 122   21:00   0.00   58.2    70    3.2   334     4.9   947.8    0.00 
 122   21:10   0.00   57.9    72    3.7   123     6.3   947.9    0.00 
 122   21:20   0.00   56.1    76    3.1   141     5.0   947.9    0.00 
 122   21:30   0.00   56.0    77    1.0   146     2.6   947.8    0.00 
 122   21:40   0.00   56.0    77    0.2   102     1.1   947.7    0.00 
 122   21:50   0.00   56.1    76    1.8   103     3.4   947.8    0.00 
 122   22:00   0.00   55.6    78    0.0    18     0.5   947.8    0.00 
 122   22:10   0.00   55.4    78    0.6   320     4.6   947.8    0.00 
 122   22:20   0.00   55.1    78    4.4   323     6.9   947.9    0.00 
 122   22:30   0.00   54.8    79    5.3   320     6.7   947.9    0.00 
 122   22:40   0.00   54.6    81    4.9   340     6.8   947.9    0.00 
 122   22:50   0.00   54.6    82    4.8   356     6.0   947.9    0.00 
 122   23:00   0.00   54.3    82    4.3   346     5.5   947.9    0.00 
 122   23:10   0.00   53.9    83    4.4   345     5.8   948.0    0.00 
 122   23:20   0.00   53.7    84    4.5   346     5.5   948.0    0.00 
 122   23:30   0.00   53.5    85    3.6   354     5.1   947.9    0.00 
 122   23:40   0.00   53.7    85    2.8     6     4.4   947.9    0.00 
 122   23:50   0.00   53.2    85    4.0   335     4.9   947.9    0.00 
 123    0:00   0.00   52.7    86    4.5   331     5.5   947.8    0.00 
 123    0:10   0.00   52.6    87    4.9   337     5.9   947.8    0.00 
 123    0:20   0.00   52.6    88    5.0   350     6.7   947.8    0.00 
 123    0:30   0.00   52.3    88    5.7   329     6.8   947.7    0.00 
 123    0:40   0.00   51.9    89    5.8   325     7.5   947.6    0.00 
 123    0:50   0.00   51.7    90    6.1   315     7.2   947.5    0.00 
 123    1:00   0.00   51.5    90    7.2   316     9.1   947.4    0.00 
 123    1:10   0.00   51.5    91    6.6   317     9.3   947.4    0.00 
 123    1:20   0.00   51.4    92    5.8   323     7.4   947.4    0.00 
 123    1:30   0.00   51.2    92    6.1   321     7.9   947.3    0.00 
 123    1:40   0.00   51.1    92    4.7   314     5.8   947.3    0.00 
 123    1:50   0.00   51.1    92    5.0   310     7.0   947.3    0.00 
 123    2:00   0.00   51.3    92    6.4   302     8.1   947.2    0.00 
 123    2:10   0.00   51.3    92    5.9   299     8.4   947.1    0.00 
 123    2:20   0.00   51.5    92    3.2   308     5.9   947.1    0.00 
 123    2:30   0.00   51.7    91    3.1   334     4.5   947.1    0.00 
 123    2:40   0.00   51.5    90    4.8   323     5.5   947.2    0.00 
 123    2:50   0.00   51.3    91    4.8   330     5.6   947.1    0.00 
 123    3:00   0.00   51.6    91    3.9   334     4.9   947.1    0.00 
 123    3:10   0.00   51.7    91    3.1   335     4.1   947.1    0.00 
 123    3:20   0.00   51.6    91    3.5   327     4.4   947.1    0.00 
 123    3:30   0.00   51.5    91    3.9   328     4.6   947.2    0.00 
 123    3:40   0.00   51.6    91    3.4   337     4.1   947.1    0.00 
 123    3:50   0.00   52.0    91    3.1    22     3.6   947.1    0.00 
 123    4:00   0.00   52.0    90    2.8    26     3.4   947.1    0.00 
 123    4:10   0.00   51.7    90    4.1   359     4.7   947.1    0.00 
 123    4:20   0.00   51.0    91    5.4   342     6.2   947.0    0.00 
 123    4:30   0.00   51.0    92    5.6   337     6.3   947.0    0.00 
 123    4:40   0.00   51.0    92    4.9   337     6.0   947.0    0.00 
 123    4:50   0.00   50.9    93    4.4   343     5.0   947.1    0.00 
 123    5:00   0.00   50.9    93    4.8   356     5.8   947.3    0.00 
 123    5:10   0.00   50.9    93    5.7   360     6.5   947.3    0.00 
 123    5:20   0.02   50.9    94    4.2   359     5.3   947.6    0.00 
 123    5:30   0.04   51.0    93    3.5   344     4.1   947.7    0.00 
 123    5:40   0.07   51.4    93    2.4   336     3.0   947.7    0.00 
 123    5:50   0.09   52.1    92    2.6    11     3.4   947.7    0.00 
 123    6:00   0.12   54.0    91    2.3    23     3.4   947.9    0.00 
 123    6:10   0.16   54.4    89    2.9   349     3.6   948.0    0.00 
 123    6:20   0.19   55.0    87    1.9   320     2.6   948.1    0.00 
 123    6:30   0.22   56.0    84    1.5   336     3.1   948.2    0.00 
 123    6:40   0.26   57.7    79    2.5    56     4.3   948.3    0.00 
 123    6:50   0.29   58.4    77    2.3    66     4.1   948.6    0.00 
 123    7:00   0.32   59.4    74    2.8    85     4.6   948.8    0.00 
 123    7:10   0.36   59.4    73    2.6    90     4.0   949.0    0.00 
 123    7:20   0.40   59.9    72    3.1    82     4.8   949.1    0.00 
 123    7:30   0.43   61.7    67    1.7    83     3.9   949.2    0.00 
 123    7:40   0.47   62.4    64    1.3   122     3.1   949.3    0.00 
 123    7:50   0.50   63.7    60    1.5    76     3.6   949.4    0.00 
 123    8:00   0.54   64.5    58    1.9    77     3.7   949.5    0.00 
 123    8:10   0.57   65.4    56    1.8    97     4.5   949.6    0.00 
 123    8:20   0.60   65.8    55    1.8   144     3.7   949.5    0.00 
 123    8:30   0.64   67.2    51    1.3   355     2.9   949.5    0.00 
 123    8:40   0.67   68.3    48    2.2   359     4.6   949.6    0.00 
 123    8:50   0.70   69.0    47    2.4    91     5.8   949.6    0.00 
 123    9:00   0.73   69.6    46    2.8    92     7.3   949.6    0.00 
 123    9:10   0.75   70.2    42    3.0    71     6.5   949.6    0.00 
 123    9:20   0.78   71.3    38    2.8    29     6.0   949.5    0.00 
 123    9:30   0.80   71.8    33    4.0   317     6.9   949.5    0.00 
 123    9:40   0.83   72.6    35    2.6    26     5.0   949.5    0.00 
 123    9:50   0.85   74.6    32    3.8   339     6.9   949.4    0.00 
 123   10:00   0.87   74.8    30    2.6   266     5.7   949.3    0.00 
 123   10:10   0.89   75.9    29    3.8   252     7.6   949.2    0.00 
 123   10:20   0.91   77.1    27    1.9   292     5.8   949.0    0.00 
 123   10:30   0.93   77.8    24    3.4    70     7.9   948.9    0.00 
 123   10:40   0.94   77.0    24    4.3    72     8.7   948.8    0.00 
 123   10:50   0.95   77.3    23    3.5    60     8.1   948.6    0.00 
 123   11:00   0.96   77.9    22    6.2    75    12.1   948.4    0.00 
 123   11:10   0.97   77.8    22    4.4    74     9.1   948.4    0.00 
 123   11:20   0.97   78.5    22    4.9    22     9.6   948.2    0.00 
 123   11:30   0.98   79.3    21    3.6    38     9.3   948.1    0.00 
 123   11:40   1.00   81.0    20    4.3    14    10.0   947.9    0.00 
 123   11:50   0.92   80.5    20    3.4    92     8.6   947.8    0.00 
 123   12:00   1.01   79.7    20    7.1   145    12.4   947.7    0.00 
 123   12:10   1.02   80.2    20    3.7   354     8.6   947.6    0.00 
 123   12:20   1.04   81.5    19    5.0    72    11.0   947.4    0.00 
 123   12:30   0.57   80.9    19    7.2    34    13.4   947.3    0.00 
 123   12:40   0.29   79.1    20    7.1    49    13.1   947.4    0.00 
 123   12:50   1.01   80.1    20    6.2    16    10.9   947.3    0.00 
 123   13:00   0.72   79.1    25   12.8   303    19.7   947.1    0.00 
 123   13:10   0.32   78.9    23    6.8   308    13.7   947.1    0.00 
 123   13:20   1.02   80.6    23    8.3   359    17.2   946.9    0.00 
 123   13:30   0.96   81.4    22    8.6   345    15.8   946.8    0.00 
 123   13:40   0.93   80.5    22    7.8   333    16.0   946.7    0.00 
 123   13:50   0.91   81.2    21    6.8   324    15.9   946.6    0.00 
 123   14:00   0.91   81.4    20    7.0     5    14.3   946.4    0.00 
 123   14:10   0.76   82.6    20    5.9   345    18.1   946.3    0.00 
 123   14:20   0.27   80.3    22   10.4   330    17.8   946.2    0.00 
 123   14:30   0.73   81.1    22    5.2     9    11.0   946.1    0.00 
 123   14:40   0.53   81.9    21    8.3     4    14.5   946.1    0.00 
 123   14:50   0.42   80.2    22    7.0   333    11.6   946.0    0.00 
 123   15:00   0.73   82.0    20    7.5   342    13.7   945.9    0.00 
 123   15:10   0.69   81.3    20    6.5   314    12.6   945.8    0.00 
 123   15:20   0.65   82.3    19    4.0   320    10.5   945.7    0.00 
 123   15:30   0.54   82.1    20    5.8     2    10.1   945.7    0.00 
 123   15:40   0.16   80.5    21    7.4   358    13.3   945.6    0.00 
 123   15:50   0.37   79.4    26   10.6   305    18.4   945.6    0.00 
 123   16:00   0.49   80.5    24   11.2   311    21.7   945.6    0.00 
 123   16:10   0.53   80.7    25   11.7   302    18.1   945.6    0.00 
 123   16:20   0.47   80.7    25   10.9   314    18.2   945.7    0.00 
 123   16:30   0.37   79.8    26   14.8   304    19.6   945.6    0.00 
 123   16:40   0.35   80.0    26   12.2   321    18.0   945.7    0.00 
 123   16:50   0.30   79.0    28   15.8   308    24.0   945.6    0.00 
 123   17:00   0.26   77.9    30   15.7   304    22.1   945.6    0.00 
 123   17:10   0.23   76.9    31   17.0   308    21.4   945.6    0.00 
 123   17:20   0.23   76.6    32   15.6   307    20.8   945.8    0.00 
 123   17:30   0.19   75.7    34   14.4   307    19.9   945.9    0.00 
 123   17:40   0.14   74.8    35   14.7   309    19.9   946.1    0.00 
 123   17:50   0.10   73.5    37   14.3   308    19.4   946.3    0.00 
 123   18:00   0.07   72.3    38   15.6   308    20.7   946.4    0.00 
 123   18:10   0.05   71.7    38   12.7   305    18.0   946.5    0.00 
 123   18:20   0.03   71.2    39   11.3   296    17.3   946.6    0.00 
 123   18:30   0.01   70.3    40   15.8   301    19.5   946.6    0.00 
 123   18:40   0.01   69.8    40   14.2   304    19.2   946.8    0.00 
 123   18:50   0.01   69.2    42   11.4   305    16.1   946.9    0.00 
 123   19:00   0.00   68.8    43   12.2   302    16.1   947.1    0.00 
 123   19:10   0.00   68.4    44    3.9   336    10.4   947.4    0.00 
 123   19:20   0.00   67.6    51    3.7    85     5.8   947.5    0.00 
 123   19:30   0.00   67.6    47    3.1   360     8.5   947.7    0.00 
 123   19:40   0.00   67.2    47    2.9   350     5.3   947.8    0.00 
 123   19:50   0.00   66.3    54    1.9    68     3.2   947.9    0.00 
 123   20:00   0.00   65.5    56    2.1     9     4.4   948.0    0.00 
 123   20:10   0.00   65.4    48    3.1   342     5.2   948.1    0.00 
 123   20:20   0.00   64.9    47    4.1   325     5.0   948.2    0.00 
 123   20:30   0.00   64.6    48    2.9   335     6.1   948.4    0.00 

Return to Motte Rimrock Reserve graphs page.


Western Regional Climate Center,wrcc@dri.edu